createdAt,value
2022-12-17T00:02:42.476Z,35.28
2022-12-17T00:05:28.334Z,38.97
2022-12-17T00:08:18.202Z,37.15
2022-12-17T00:11:04.519Z,37.55
2022-12-17T00:13:50.427Z,36.53
2022-12-17T00:16:36.202Z,39.53
2022-12-17T00:19:21.934Z,37.03
2022-12-17T00:22:07.909Z,36.67
2022-12-17T00:24:53.895Z,36.67
2022-12-17T00:27:42.279Z,36.53
2022-12-17T00:30:32.012Z,34.92
2022-12-17T00:33:18.087Z,36.58
2022-12-17T00:36:10.495Z,36.38
2022-12-17T00:38:57.108Z,35.90
2022-12-17T00:41:43.194Z,37.90
2022-12-17T00:44:29.538Z,35.47
2022-12-17T00:47:15.631Z,37.15
2022-12-17T00:50:04.230Z,38.83
2022-12-17T00:52:50.167Z,36.63
2022-12-17T00:55:36.332Z,36.72
2022-12-17T00:58:22.083Z,36.65
2022-12-17T01:01:07.903Z,39.10
2022-12-17T01:03:53.502Z,36.45
2022-12-17T01:06:39.449Z,37.88
2022-12-17T01:09:25.119Z,36.88
2022-12-17T01:12:10.878Z,37.63
2022-12-17T01:14:56.887Z,35.22
2022-12-17T01:17:42.595Z,37.90
2022-12-17T01:20:28.839Z,37.40
2022-12-17T01:23:14.556Z,37.17
2022-12-17T01:26:00.445Z,37.30
2022-12-17T01:28:47.163Z,35.80
2022-12-17T01:31:35.584Z,37.30
2022-12-17T01:34:21.536Z,37.65
2022-12-17T01:37:07.526Z,34.72
2022-12-17T01:39:53.356Z,36.83
2022-12-17T01:42:39.326Z,36.72
2022-12-17T01:45:31.058Z,36.22
2022-12-17T01:48:26.825Z,36.28
2022-12-17T01:51:14.718Z,35.92
2022-12-17T01:54:06.301Z,36.28
2022-12-17T01:56:54.335Z,36.85
2022-12-17T01:59:51.934Z,37.92
2022-12-17T02:02:37.879Z,35.65
2022-12-17T02:05:23.920Z,35.33
2022-12-17T02:08:28.110Z,34.30
2022-12-17T02:11:56.095Z,36.47
2022-12-17T02:14:55.307Z,36.05
2022-12-17T02:17:46.824Z,34.88
2022-12-17T02:20:45.200Z,37.45
2022-12-17T02:24:02.455Z,38.88
2022-12-17T02:26:59.777Z,38.13
2022-12-17T02:29:50.000Z,36.03
2022-12-17T02:32:36.883Z,36.95
2022-12-17T02:35:31.444Z,36.95
2022-12-17T02:38:17.476Z,38.30
2022-12-17T02:41:05.816Z,36.63
2022-12-17T02:43:53.464Z,40.50
2022-12-17T02:46:39.889Z,35.15
2022-12-17T02:49:26.053Z,37.25
2022-12-17T02:52:14.077Z,35.80
2022-12-17T02:55:00.152Z,36.72
2022-12-17T02:57:52.223Z,36.33
2022-12-17T03:00:41.470Z,37.85
2022-12-17T03:03:27.707Z,34.85
2022-12-17T03:06:13.467Z,34.92
2022-12-17T03:09:02.431Z,35.28
2022-12-17T03:11:49.519Z,37.03
2022-12-17T03:14:35.472Z,35.45
2022-12-17T03:17:28.861Z,34.92
2022-12-17T03:20:14.937Z,34.15
2022-12-17T03:23:00.857Z,34.75
2022-12-17T03:25:46.513Z,33.28
2022-12-17T03:28:32.739Z,34.58
2022-12-17T03:31:19.910Z,36.05
2022-12-17T03:34:06.224Z,36.58
2022-12-17T03:36:52.411Z,35.20
2022-12-17T03:39:38.699Z,36.83
2022-12-17T03:42:24.570Z,37.58
2022-12-17T03:45:10.855Z,33.70
2022-12-17T03:47:56.548Z,38.58
2022-12-17T03:50:42.536Z,37.20
2022-12-17T03:53:28.810Z,35.88
2022-12-17T03:56:14.935Z,36.60
2022-12-17T03:59:00.755Z,36.08
2022-12-17T04:01:46.800Z,36.25
2022-12-17T04:04:33.059Z,36.92
2022-12-17T04:07:19.000Z,36.50
2022-12-17T04:10:08.023Z,37.08
2022-12-17T04:12:53.821Z,35.60
2022-12-17T04:15:39.839Z,37.05
2022-12-17T04:18:25.478Z,37.83
2022-12-17T04:21:11.295Z,38.75
2022-12-17T04:23:57.311Z,39.63
2022-12-17T04:26:43.242Z,37.22
2022-12-17T04:29:29.164Z,37.35
2022-12-17T04:32:17.894Z,33.38
2022-12-17T04:35:03.824Z,36.78
2022-12-17T04:37:50.261Z,36.17
2022-12-17T04:40:38.854Z,38.22
2022-12-17T04:43:27.601Z,37.45
2022-12-17T04:46:14.113Z,37.15
2022-12-17T04:49:00.643Z,36.85
2022-12-17T04:51:47.169Z,35.45
2022-12-17T04:54:32.939Z,35.45
2022-12-17T04:57:19.065Z,36.20
2022-12-17T05:00:05.318Z,38.35
2022-12-17T05:02:51.968Z,36.10
2022-12-17T05:05:38.768Z,38.00
2022-12-17T05:08:24.970Z,38.75
2022-12-17T05:11:10.836Z,35.53
2022-12-17T05:13:56.807Z,34.92
2022-12-17T05:16:42.981Z,37.08
2022-12-17T05:19:28.762Z,37.20
2022-12-17T05:22:14.566Z,36.15
2022-12-17T05:25:00.513Z,35.00
2022-12-17T05:27:46.481Z,36.67
2022-12-17T05:30:32.954Z,34.63
2022-12-17T05:33:20.814Z,33.92
2022-12-17T05:36:07.239Z,35.13
2022-12-17T05:38:53.047Z,36.65
2022-12-17T05:47:01.014Z,36.10
2022-12-17T05:49:46.215Z,33.53
2022-12-17T05:52:31.411Z,32.55
2022-12-17T05:55:16.455Z,33.47
2022-12-17T05:58:01.647Z,32.90
2022-12-17T06:00:46.724Z,30.92
2022-12-17T06:03:31.838Z,31.02
2022-12-17T06:12:04.645Z,30.10
2022-12-17T06:14:50.677Z,30.50
2022-12-17T06:17:36.724Z,32.55
2022-12-17T06:20:30.379Z,30.08
2022-12-17T06:23:28.958Z,30.33
2022-12-17T06:26:16.338Z,28.90
2022-12-17T06:29:02.881Z,28.13
2022-12-17T06:31:49.129Z,28.45
2022-12-17T06:34:35.142Z,29.00
2022-12-17T06:37:21.057Z,28.15
2022-12-17T06:40:07.078Z,31.33
2022-12-17T06:42:53.004Z,29.73
2022-12-17T06:45:39.045Z,29.45
2022-12-17T06:48:26.995Z,29.27
2022-12-17T06:51:14.023Z,30.05
2022-12-17T06:54:00.785Z,29.02
2022-12-17T06:56:47.220Z,29.40
2022-12-17T06:59:33.175Z,30.23
2022-12-17T07:02:19.282Z,29.38
2022-12-17T07:05:05.314Z,27.33
2022-12-17T07:07:51.017Z,25.80
2022-12-17T07:10:38.466Z,25.98
2022-12-17T07:13:28.585Z,26.50
2022-12-17T07:16:14.693Z,26.42
2022-12-17T07:19:00.662Z,25.38
2022-12-17T07:21:46.487Z,27.02
2022-12-17T07:24:32.260Z,26.33
2022-12-17T07:27:18.243Z,25.48
2022-12-17T07:30:04.247Z,24.85
2022-12-17T07:32:49.926Z,24.40
2022-12-17T07:35:35.817Z,24.88
2022-12-17T07:38:23.442Z,25.73
2022-12-17T07:41:09.665Z,25.80
2022-12-17T07:43:55.735Z,26.08
2022-12-17T07:46:41.919Z,25.88
2022-12-17T07:49:27.673Z,26.85
2022-12-17T07:52:13.763Z,24.80
2022-12-17T07:55:02.790Z,23.70
2022-12-17T07:57:48.577Z,23.77
2022-12-17T08:00:34.618Z,24.00
2022-12-17T08:03:20.688Z,23.75
2022-12-17T08:06:06.575Z,21.67
2022-12-17T08:08:52.617Z,23.90
2022-12-17T08:11:38.933Z,22.55
2022-12-17T08:14:24.706Z,21.40
2022-12-17T08:17:10.766Z,21.15
2022-12-17T08:19:56.697Z,22.63
2022-12-17T08:22:42.519Z,22.73
2022-12-17T08:25:28.653Z,20.80
2022-12-17T08:28:49.179Z,20.20
2022-12-17T08:31:24.783Z,19.40
2022-12-17T08:34:10.898Z,19.42
2022-12-17T08:36:56.741Z,21.25
2022-12-17T08:39:42.867Z,21.95
2022-12-17T08:42:28.886Z,22.05
2022-12-17T08:45:14.735Z,21.17
2022-12-17T08:48:04.122Z,19.90
2022-12-17T08:50:50.783Z,21.55
2022-12-17T08:53:37.126Z,20.60
2022-12-17T08:56:23.792Z,19.48
2022-12-17T08:59:09.935Z,19.45
2022-12-17T09:01:55.995Z,20.08
2022-12-17T09:04:42.049Z,21.30
2022-12-17T09:07:28.257Z,19.75
2022-12-17T09:10:14.340Z,19.75
2022-12-17T09:13:04.673Z,19.45
2022-12-17T09:15:52.140Z,19.23
2022-12-17T09:18:39.982Z,20.00
2022-12-17T09:21:26.194Z,23.02
2022-12-17T09:24:12.097Z,22.52
2022-12-17T09:26:58.143Z,23.25
2022-12-17T09:29:43.771Z,20.73
2022-12-17T09:32:29.602Z,19.02
2022-12-17T09:35:17.126Z,19.67
2022-12-17T09:38:03.332Z,22.35
2022-12-17T09:40:49.599Z,24.83
2022-12-17T09:43:44.460Z,23.20
2022-12-17T09:46:46.296Z,23.42
2022-12-17T09:49:36.078Z,24.23
2022-12-17T09:52:47.507Z,25.73
2022-12-17T09:55:58.118Z,23.88
2022-12-17T09:58:54.199Z,23.35
2022-12-17T10:01:46.991Z,25.25
2022-12-17T10:04:53.449Z,24.40
2022-12-17T10:07:42.908Z,24.88
2022-12-17T10:10:49.625Z,24.02
2022-12-17T10:13:38.437Z,24.20
2022-12-17T10:16:52.467Z,24.90
2022-12-17T10:20:00.293Z,25.58
2022-12-17T10:22:46.352Z,23.90
2022-12-17T10:25:39.052Z,26.08
2022-12-17T10:28:34.096Z,26.25
2022-12-17T10:34:06.172Z,25.20
2022-12-17T10:36:52.605Z,25.10
2022-12-17T10:39:44.072Z,22.80
2022-12-17T10:42:45.481Z,23.80
2022-12-17T10:45:45.058Z,26.23
2022-12-17T10:48:48.917Z,27.65
2022-12-17T10:51:51.253Z,25.48
2022-12-17T10:54:48.976Z,28.38
2022-12-17T10:57:57.684Z,28.02
2022-12-17T11:00:53.242Z,29.13
2022-12-17T11:03:45.254Z,29.45
2022-12-17T11:06:52.055Z,27.45
2022-12-17T11:10:08.714Z,24.10
2022-12-17T11:13:07.011Z,25.25
2022-12-17T11:16:11.317Z,27.15
2022-12-17T11:19:32.611Z,27.13
2022-12-17T11:22:38.369Z,27.52
2022-12-17T11:26:06.645Z,29.30
2022-12-17T11:28:54.201Z,27.58
2022-12-17T11:32:01.975Z,28.75
2022-12-17T11:34:59.808Z,29.90
2022-12-17T11:37:56.860Z,28.98
2022-12-17T11:41:00.457Z,29.70
2022-12-17T11:43:55.973Z,27.70
2022-12-17T11:46:59.108Z,27.27
2022-12-17T11:50:08.772Z,30.38
2022-12-17T11:52:59.309Z,27.10
2022-12-17T11:56:13.326Z,28.85
2022-12-17T11:59:04.804Z,28.42
2022-12-17T12:02:12.117Z,28.23
2022-12-17T12:05:01.016Z,29.05
2022-12-17T12:08:19.081Z,26.75
2022-12-17T12:11:33.591Z,28.13
2022-12-17T12:14:24.900Z,28.83
2022-12-17T12:17:32.823Z,28.27
2022-12-17T12:20:36.095Z,29.60
2022-12-17T12:23:29.867Z,28.83
2022-12-17T12:26:35.127Z,29.52
2022-12-17T12:29:33.861Z,29.13
2022-12-17T12:32:25.961Z,29.67
2022-12-17T12:35:13.092Z,29.33
2022-12-17T12:37:59.238Z,29.17
2022-12-17T12:41:13.022Z,31.15
2022-12-17T12:44:04.263Z,29.75
2022-12-17T12:47:01.151Z,29.98
2022-12-17T12:49:59.635Z,30.27
2022-12-17T12:52:47.082Z,28.55
2022-12-17T12:55:33.036Z,31.52
2022-12-17T12:58:44.606Z,30.75
2022-12-17T13:01:31.216Z,31.23
2022-12-17T13:04:20.185Z,31.55
2022-12-17T13:06:56.216Z,30.67
2022-12-17T13:09:35.222Z,30.90
2022-12-17T13:12:02.964Z,31.13
2022-12-17T13:14:35.722Z,32.72
2022-12-17T13:17:16.088Z,32.75
2022-12-17T13:19:59.207Z,32.83
2022-12-17T13:22:31.470Z,32.35
2022-12-17T13:25:20.902Z,31.40
2022-12-17T13:27:51.292Z,30.15
2022-12-17T13:30:18.737Z,31.23
2022-12-17T13:32:58.367Z,31.17
2022-12-17T13:35:54.931Z,32.15
2022-12-17T13:38:55.350Z,31.50
2022-12-17T13:41:30.252Z,30.58
2022-12-17T13:44:24.293Z,30.25
2022-12-17T13:46:54.209Z,30.42
2022-12-17T13:49:30.473Z,28.10
2022-12-17T13:52:18.512Z,30.48
2022-12-17T13:54:46.079Z,31.45
2022-12-17T13:57:23.554Z,28.42
2022-12-17T13:59:59.839Z,30.55
2022-12-17T14:02:29.570Z,29.60
2022-12-17T14:05:04.020Z,29.38
2022-12-17T14:07:39.122Z,27.13
2022-12-17T14:10:15.867Z,28.42
2022-12-17T14:12:44.206Z,28.25
2022-12-17T14:15:26.830Z,28.85
2022-12-17T14:17:56.513Z,26.73
2022-12-17T14:20:26.394Z,26.42
2022-12-17T14:22:56.426Z,26.58
2022-12-17T14:25:27.075Z,27.25
2022-12-17T14:28:03.476Z,27.55
2022-12-17T14:30:46.346Z,28.60
2022-12-17T14:33:32.440Z,27.27
2022-12-17T14:36:19.503Z,27.10
2022-12-17T14:38:58.130Z,28.08
2022-12-17T14:41:45.923Z,28.13
2022-12-17T14:44:21.713Z,28.42
2022-12-17T14:47:14.326Z,28.13
2022-12-17T14:49:57.405Z,30.08
2022-12-17T14:52:34.243Z,28.02
2022-12-17T14:55:21.658Z,27.05
2022-12-17T14:57:50.163Z,24.75
2022-12-17T15:00:18.681Z,26.42
2022-12-17T15:02:53.131Z,25.20
2022-12-17T15:07:48.039Z,25.65
2022-12-17T15:10:19.721Z,29.35
2022-12-17T15:12:48.699Z,29.23
2022-12-17T15:15:16.504Z,25.88
2022-12-17T15:17:43.956Z,25.90
2022-12-17T15:20:18.131Z,29.63
2022-12-17T15:22:46.032Z,27.33
2022-12-17T15:25:18.947Z,29.42
2022-12-17T15:27:46.778Z,29.33
2022-12-17T15:30:16.386Z,27.60
2022-12-17T15:32:45.591Z,27.98
2022-12-17T15:35:14.089Z,28.45
2022-12-17T15:37:41.469Z,27.60
2022-12-17T15:40:11.814Z,28.67
2022-12-17T15:43:02.900Z,28.08
2022-12-17T15:45:32.393Z,28.02
2022-12-17T15:47:59.718Z,27.98
2022-12-17T15:50:27.085Z,28.67
2022-12-17T15:52:54.442Z,29.73
2022-12-17T15:55:21.830Z,28.98
2022-12-17T15:57:49.136Z,29.73
2022-12-17T16:00:16.790Z,28.90
2022-12-17T16:02:44.380Z,30.10
2022-12-17T16:05:12.464Z,30.17
2022-12-17T16:07:39.868Z,29.27
2022-12-17T16:10:07.438Z,29.23
2022-12-17T16:12:34.723Z,29.20
2022-12-17T16:15:02.512Z,30.40
2022-12-17T16:17:29.848Z,29.50
2022-12-17T16:19:57.356Z,29.58
2022-12-17T16:22:24.726Z,30.38
2022-12-17T16:24:52.592Z,29.98
2022-12-17T16:27:20.461Z,31.52
2022-12-17T16:29:48.320Z,31.90
2022-12-17T16:32:16.974Z,33.40
2022-12-17T16:34:44.806Z,34.58
2022-12-17T16:37:12.190Z,32.40
2022-12-17T16:39:39.529Z,34.88
2022-12-17T16:42:07.291Z,34.05
2022-12-17T16:44:34.816Z,31.70
2022-12-17T16:47:02.124Z,30.58
2022-12-17T16:49:29.481Z,29.15
2022-12-17T16:51:57.777Z,32.63
2022-12-17T16:54:29.161Z,33.47
2022-12-17T16:56:56.628Z,39.17
2022-12-17T16:59:24.154Z,37.08
2022-12-17T17:01:52.651Z,40.28
2022-12-17T17:04:22.620Z,40.50
2022-12-17T17:06:55.718Z,36.63
2022-12-17T17:09:24.399Z,34.00
2022-12-17T17:11:54.594Z,35.42
2022-12-17T17:14:21.900Z,38.10
2022-12-17T17:16:49.681Z,33.55
2022-12-17T17:19:17.398Z,37.42
2022-12-17T17:21:54.692Z,40.35
2022-12-17T17:24:26.895Z,52.00
2022-12-17T17:26:55.075Z,46.60
2022-12-17T17:29:23.159Z,44.03
2022-12-17T17:32:09.883Z,43.17
2022-12-17T17:34:39.049Z,41.45
2022-12-17T17:37:07.044Z,40.70
2022-12-17T17:39:34.623Z,41.15
2022-12-17T17:42:02.503Z,37.88
2022-12-17T17:44:29.895Z,36.75
2022-12-17T17:46:57.282Z,35.40
2022-12-17T17:49:25.210Z,36.35
2022-12-17T17:52:08.991Z,33.85
2022-12-17T17:54:39.587Z,34.55
2022-12-17T17:57:07.451Z,34.33
2022-12-17T17:59:34.859Z,32.58
2022-12-17T18:02:03.462Z,36.67
2022-12-17T18:04:31.713Z,35.70
2022-12-17T18:09:47.015Z,32.30
2022-12-17T18:12:33.118Z,34.65
2022-12-17T18:15:17.720Z,35.50
2022-12-17T18:17:49.404Z,36.75
2022-12-17T18:20:17.555Z,30.90
2022-12-17T18:22:46.303Z,32.90
2022-12-17T18:25:15.231Z,29.98
2022-12-17T18:27:44.165Z,32.78
2022-12-17T18:30:12.404Z,31.90
2022-12-17T18:32:39.674Z,31.95
2022-12-17T18:35:07.534Z,33.13
2022-12-17T18:37:34.861Z,39.08
2022-12-17T18:40:02.249Z,40.25
2022-12-17T18:42:47.904Z,35.35
2022-12-17T18:45:15.164Z,33.38
2022-12-17T18:47:44.219Z,33.17
2022-12-17T18:50:12.280Z,32.15
2022-12-17T18:52:39.684Z,36.28
2022-12-17T18:55:09.991Z,35.92
2022-12-17T18:57:37.332Z,34.63
2022-12-17T19:00:05.817Z,34.88
2022-12-17T19:02:33.285Z,35.33
2022-12-17T19:05:00.641Z,36.25
2022-12-17T19:07:27.915Z,35.10
2022-12-17T19:09:55.131Z,36.00
2022-12-17T19:12:22.548Z,34.05
2022-12-17T19:14:49.818Z,34.03
2022-12-17T19:17:17.114Z,31.88
2022-12-17T19:19:44.437Z,32.40
2022-12-17T19:22:11.690Z,33.25
2022-12-17T19:24:38.949Z,30.35
2022-12-17T19:27:06.189Z,28.58
2022-12-17T19:29:33.545Z,28.63
2022-12-17T19:32:00.805Z,31.08
2022-12-17T19:34:28.124Z,28.42
2022-12-17T19:36:55.392Z,29.60
2022-12-17T19:39:22.719Z,28.52
2022-12-17T19:41:50.876Z,26.65
2022-12-17T19:44:20.028Z,26.92
2022-12-17T19:46:49.224Z,25.60
2022-12-17T19:49:17.014Z,27.55
2022-12-17T19:51:44.718Z,28.20
2022-12-17T19:54:14.782Z,25.85
2022-12-17T19:56:43.780Z,23.08
2022-12-17T19:59:12.633Z,23.25
2022-12-17T20:01:45.635Z,23.65
2022-12-17T20:04:14.217Z,23.33
2022-12-17T20:06:42.861Z,21.42
2022-12-17T20:09:10.518Z,22.88
2022-12-17T20:11:38.899Z,22.45
2022-12-17T20:14:16.998Z,23.67
2022-12-17T20:16:46.728Z,23.42
2022-12-17T20:19:17.357Z,22.63
2022-12-17T20:21:44.791Z,24.15
2022-12-17T20:24:13.222Z,23.45
2022-12-17T20:26:41.111Z,24.17
2022-12-17T20:29:09.010Z,23.25
2022-12-17T20:31:37.059Z,22.45
2022-12-17T20:34:05.631Z,22.42
2022-12-17T20:36:33.078Z,22.42
2022-12-17T20:39:00.453Z,21.00
2022-12-17T20:41:29.819Z,20.50
2022-12-17T20:43:57.273Z,21.90
2022-12-17T20:46:25.367Z,23.08
2022-12-17T20:48:53.992Z,23.58
2022-12-17T20:51:24.212Z,25.55
2022-12-17T20:53:53.724Z,24.30
2022-12-17T20:56:24.875Z,24.35
2022-12-17T20:58:58.994Z,22.60
2022-12-17T21:01:29.560Z,22.85
2022-12-17T21:03:58.813Z,24.40
2022-12-17T21:06:34.349Z,21.48
2022-12-17T21:09:02.224Z,20.98
2022-12-17T21:11:31.253Z,20.88
2022-12-17T21:13:59.180Z,20.15
2022-12-17T21:16:30.908Z,21.77
2022-12-17T21:19:00.717Z,20.27
2022-12-17T21:21:33.035Z,20.80
2022-12-17T21:24:01.150Z,20.23
2022-12-17T21:26:33.949Z,21.23
2022-12-17T21:29:02.823Z,20.83
2022-12-17T21:32:02.921Z,22.05
2022-12-17T21:34:32.313Z,21.65
2022-12-17T21:36:59.615Z,19.42
2022-12-17T21:39:27.498Z,20.90
2022-12-17T21:42:13.398Z,20.52
2022-12-17T21:44:40.667Z,24.48
2022-12-17T21:47:08.186Z,21.08
2022-12-17T21:49:36.053Z,21.55
2022-12-17T21:52:03.681Z,20.35
2022-12-17T21:54:31.060Z,21.23
2022-12-17T21:56:58.362Z,20.00
2022-12-17T21:59:25.707Z,19.50
2022-12-17T22:01:53.416Z,20.52
2022-12-17T22:04:20.929Z,19.40
2022-12-17T22:06:49.868Z,19.27
2022-12-17T22:09:51.942Z,20.42
2022-12-17T22:12:36.534Z,22.05
2022-12-17T22:15:06.601Z,21.42
2022-12-17T22:17:34.415Z,21.20
2022-12-17T22:20:01.946Z,21.30
2022-12-17T22:22:29.535Z,21.10
2022-12-17T22:24:57.054Z,20.67
2022-12-17T22:27:24.570Z,20.90
2022-12-17T22:30:10.292Z,20.48
2022-12-17T22:32:56.281Z,19.77
2022-12-17T22:37:04.889Z,20.08
2022-12-17T22:43:15.978Z,20.70
2022-12-17T22:44:35.298Z,19.50
2022-12-17T22:44:38.395Z,17.85
2022-12-17T22:46:47.111Z,18.75
2022-12-17T22:49:14.940Z,18.05
2022-12-17T22:51:43.315Z,18.88
2022-12-17T22:54:12.748Z,17.67
2022-12-17T22:57:34.614Z,18.55
2022-12-17T22:59:29.366Z,18.25
2022-12-17T23:01:56.681Z,18.50
2022-12-17T23:04:24.053Z,18.33
2022-12-17T23:06:51.391Z,17.55
2022-12-17T23:09:19.783Z,18.83
2022-12-17T23:11:48.396Z,17.70
2022-12-17T23:14:16.654Z,17.95
2022-12-17T23:16:44.029Z,17.25
2022-12-17T23:19:12.558Z,17.25
2022-12-17T23:21:39.920Z,19.52
2022-12-17T23:24:07.758Z,17.95
2022-12-17T23:26:36.555Z,17.25
2022-12-17T23:29:07.772Z,16.25
2022-12-17T23:31:38.019Z,16.98
2022-12-17T23:34:05.757Z,16.75
2022-12-17T23:36:33.413Z,17.15
2022-12-17T23:39:00.812Z,16.52
2022-12-17T23:41:30.323Z,16.15
2022-12-17T23:43:58.473Z,15.25
2022-12-17T23:46:28.039Z,16.45
2022-12-17T23:48:55.423Z,15.73
2022-12-17T23:51:23.783Z,15.52
2022-12-17T23:53:51.047Z,16.02
2022-12-17T23:56:21.933Z,15.55
2022-12-17T23:58:57.063Z,14.80
